createdAt,value
2022-10-24T00:01:17.576Z,13.77
2022-10-24T00:03:44.677Z,13.50
2022-10-24T00:06:13.358Z,13.54
2022-10-24T00:08:41.600Z,13.61
2022-10-24T00:11:12.172Z,13.70
2022-10-24T00:13:39.606Z,13.52
2022-10-24T00:16:06.861Z,13.58
2022-10-24T00:18:33.665Z,13.50
2022-10-24T00:21:00.458Z,13.30
2022-10-24T00:23:27.207Z,13.54
2022-10-24T00:25:53.932Z,13.39
2022-10-24T00:28:20.692Z,13.40
2022-10-24T00:30:52.334Z,13.47
2022-10-24T00:33:19.333Z,13.47
2022-10-24T00:35:46.487Z,13.49
2022-10-24T00:38:13.278Z,13.48
2022-10-24T00:40:40.633Z,13.52
2022-10-24T00:43:26.898Z,13.74
2022-10-24T00:45:55.867Z,13.54
2022-10-24T00:48:39.699Z,13.54
2022-10-24T00:51:11.209Z,13.55
2022-10-24T00:53:44.503Z,13.73
2022-10-24T00:56:14.722Z,13.71
2022-10-24T00:58:44.961Z,13.81
2022-10-24T01:01:13.019Z,13.65
2022-10-24T01:03:39.856Z,13.47
2022-10-24T01:06:18.689Z,13.67
2022-10-24T01:09:04.125Z,13.74
2022-10-24T01:11:57.235Z,13.64
2022-10-24T01:14:57.887Z,13.79
2022-10-24T01:17:52.442Z,13.66
2022-10-24T01:20:43.892Z,13.59
2022-10-24T01:23:24.150Z,13.74
2022-10-24T01:25:59.915Z,13.73
2022-10-24T01:28:58.841Z,13.83
2022-10-24T01:31:35.604Z,13.75
2022-10-24T01:34:09.593Z,13.80
2022-10-24T01:36:47.601Z,13.52
2022-10-24T01:39:19.503Z,13.62
2022-10-24T01:41:47.735Z,13.73
2022-10-24T01:44:24.887Z,13.77
2022-10-24T01:47:08.058Z,13.77
2022-10-24T01:49:38.252Z,13.78
2022-10-24T01:52:11.028Z,13.67
2022-10-24T01:54:39.193Z,13.88
2022-10-24T01:57:05.908Z,13.73
2022-10-24T01:59:32.499Z,13.87
2022-10-24T02:02:08.745Z,13.64
2022-10-24T02:04:39.476Z,13.68
2022-10-24T02:07:09.677Z,14.03
2022-10-24T02:09:39.847Z,14.00
2022-10-24T02:12:08.948Z,14.07
2022-10-24T02:14:40.136Z,14.08
2022-10-24T02:17:06.953Z,13.92
2022-10-24T02:19:33.809Z,13.85
2022-10-24T02:22:15.673Z,14.03
2022-10-24T02:24:49.725Z,13.94
2022-10-24T02:27:20.737Z,13.96
2022-10-24T02:29:53.439Z,14.17
2022-10-24T02:32:27.691Z,14.12
2022-10-24T02:34:55.853Z,14.20
2022-10-24T02:37:25.065Z,13.98
2022-10-24T02:39:55.107Z,14.05
2022-10-24T02:42:24.205Z,14.00
2022-10-24T02:44:51.042Z,13.96
2022-10-24T02:47:21.231Z,14.11
2022-10-24T02:49:48.059Z,14.03
2022-10-24T02:52:15.778Z,14.00
2022-10-24T02:54:42.485Z,13.99
2022-10-24T02:57:09.352Z,14.03
2022-10-24T02:59:36.047Z,13.94
2022-10-24T03:02:02.831Z,14.01
2022-10-24T03:04:29.520Z,13.79
2022-10-24T03:06:56.324Z,13.99
2022-10-24T03:09:23.002Z,14.18
2022-10-24T03:11:50.089Z,14.07
2022-10-24T03:14:16.969Z,14.19
2022-10-24T03:16:43.694Z,14.09
2022-10-24T03:19:10.360Z,14.05
2022-10-24T03:21:37.147Z,13.96
2022-10-24T03:24:04.164Z,13.97
2022-10-24T03:26:30.948Z,13.85
2022-10-24T03:28:57.635Z,14.07
2022-10-24T03:31:24.397Z,13.97
2022-10-24T03:33:51.281Z,14.14
2022-10-24T03:36:18.375Z,14.05
2022-10-24T03:38:45.059Z,14.05
2022-10-24T03:41:11.805Z,14.14
2022-10-24T03:43:38.485Z,14.08
2022-10-24T03:46:05.341Z,14.23
2022-10-24T03:48:32.231Z,14.12
2022-10-24T03:50:58.920Z,14.06
2022-10-24T03:53:25.811Z,14.03
2022-10-24T03:55:52.585Z,13.89
2022-10-24T03:58:19.274Z,14.17
2022-10-24T04:00:46.038Z,14.13
2022-10-24T04:03:12.700Z,13.98
2022-10-24T04:05:40.261Z,14.00
2022-10-24T04:08:06.995Z,14.03
2022-10-24T04:10:33.843Z,14.26
2022-10-24T04:13:00.679Z,13.96
2022-10-24T04:15:27.546Z,14.12
2022-10-24T04:17:54.263Z,14.19
2022-10-24T04:20:22.690Z,14.16
2022-10-24T04:22:49.785Z,14.32
2022-10-24T04:25:16.885Z,13.99
2022-10-24T04:27:44.081Z,14.09
2022-10-24T04:30:16.398Z,14.11
2022-10-24T04:32:44.518Z,14.18
2022-10-24T04:35:12.028Z,14.36
2022-10-24T04:37:38.776Z,14.36
2022-10-24T04:40:06.103Z,14.09
2022-10-24T04:42:32.960Z,14.34
2022-10-24T04:44:59.711Z,14.08
2022-10-24T04:47:26.364Z,14.05
2022-10-24T04:49:53.153Z,14.13
2022-10-24T04:52:19.887Z,14.14
2022-10-24T04:54:46.593Z,14.31
2022-10-24T04:57:13.319Z,14.10
2022-10-24T04:59:39.983Z,14.38
2022-10-24T05:02:06.739Z,14.25
2022-10-24T05:04:33.441Z,14.19
2022-10-24T05:07:00.202Z,14.09
2022-10-24T05:09:26.863Z,14.25
2022-10-24T05:11:57.348Z,14.21
2022-10-24T05:14:24.659Z,14.31
2022-10-24T05:16:51.408Z,14.16
2022-10-24T05:19:19.773Z,14.45
2022-10-24T05:21:46.888Z,14.29
2022-10-24T05:24:14.064Z,14.39
2022-10-24T05:26:40.813Z,14.19
2022-10-24T05:31:34.450Z,14.18
2022-10-24T05:34:01.209Z,14.11
2022-10-24T05:36:27.886Z,14.27
2022-10-24T05:38:54.578Z,14.05
2022-10-24T05:41:21.343Z,14.29
2022-10-24T05:43:48.028Z,14.04
2022-10-24T05:46:14.700Z,14.27
2022-10-24T05:48:41.388Z,14.18
2022-10-24T05:51:08.065Z,13.96
2022-10-24T05:53:34.830Z,14.19
2022-10-24T05:56:01.611Z,13.96
2022-10-24T05:58:28.347Z,14.13
2022-10-24T06:00:55.031Z,14.11
2022-10-24T06:03:22.395Z,14.27
2022-10-24T06:05:50.244Z,14.15
2022-10-24T06:08:17.397Z,14.09
2022-10-24T06:10:49.597Z,13.78
2022-10-24T06:13:17.116Z,13.85
2022-10-24T11:56:18.647Z,14.95
2022-10-24T11:58:56.594Z,14.80
2022-10-24T12:02:02.382Z,15.10
2022-10-24T12:04:56.917Z,14.95
2022-10-24T12:07:56.829Z,14.19
2022-10-24T12:10:40.979Z,15.13
2022-10-24T12:13:26.381Z,14.81
2022-10-24T12:16:19.521Z,15.13
2022-10-24T12:18:50.840Z,14.79
2022-10-24T12:21:26.384Z,15.16
2022-10-24T12:24:01.657Z,15.50
2022-10-24T12:26:31.417Z,15.36
2022-10-24T12:29:01.093Z,15.51
2022-10-24T12:31:33.144Z,15.05
2022-10-24T12:34:23.157Z,15.88
2022-10-24T12:37:09.757Z,16.06
2022-10-24T12:39:38.205Z,16.12
2022-10-24T12:42:06.021Z,16.08
2022-10-24T12:44:32.843Z,16.02
2022-10-24T12:47:37.321Z,15.91
2022-10-24T12:50:22.245Z,16.02
2022-10-24T12:52:50.442Z,15.70
2022-10-24T12:55:49.452Z,15.81
2022-10-24T12:58:34.828Z,16.00
2022-10-24T14:29:32.986Z,16.98
2022-10-24T17:27:33.801Z,13.83
2022-10-24T18:55:11.777Z,13.03
2022-10-24T19:03:29.577Z,12.73
2022-10-24T19:06:25.117Z,12.75
2022-10-24T19:08:52.463Z,12.40
2022-10-24T19:11:20.048Z,12.68
2022-10-24T19:13:47.174Z,12.62
2022-10-24T19:16:30.258Z,12.44
2022-10-24T19:19:01.131Z,12.42
2022-10-24T19:21:30.835Z,12.43
2022-10-24T19:23:57.921Z,12.82
2022-10-24T19:26:28.073Z,12.68
2022-10-24T19:28:55.086Z,12.49
2022-10-24T19:31:24.915Z,12.58
2022-10-24T19:33:54.436Z,12.89
2022-10-24T19:36:21.361Z,12.95
2022-10-24T19:38:50.557Z,12.26
2022-10-24T19:41:20.386Z,13.28
2022-10-24T19:43:50.922Z,12.81
2022-10-24T19:46:20.337Z,12.65
2022-10-24T19:48:49.637Z,12.97
2022-10-24T19:51:20.138Z,12.80
2022-10-24T19:53:51.956Z,12.40
2022-10-24T19:56:25.355Z,12.90
2022-10-24T19:58:55.330Z,12.48
2022-10-24T20:01:30.362Z,12.51
2022-10-24T20:04:01.863Z,12.58
2022-10-24T20:06:29.041Z,12.38
2022-10-24T20:08:57.418Z,12.67
2022-10-24T20:11:24.263Z,13.08
2022-10-24T20:13:51.178Z,13.05
2022-10-24T20:16:19.816Z,12.65
2022-10-24T20:18:49.723Z,12.67
2022-10-24T20:21:19.414Z,12.93
2022-10-24T20:23:48.805Z,12.34
2022-10-24T20:26:23.719Z,13.30
2022-10-24T20:28:53.181Z,13.75
2022-10-24T20:32:21.696Z,12.94
2022-10-24T20:35:05.471Z,13.06
2022-10-24T20:41:17.756Z,13.71
2022-10-24T20:53:20.751Z,12.81
2022-10-24T20:55:47.682Z,12.66
2022-10-24T21:11:29.884Z,12.90
2022-10-24T21:13:59.712Z,12.62
2022-10-24T21:16:27.254Z,12.86
2022-10-24T21:18:56.396Z,12.61
2022-10-24T21:21:24.333Z,12.89
2022-10-24T21:23:53.353Z,13.31
2022-10-24T21:26:21.071Z,13.22
2022-10-24T21:28:48.312Z,13.30
2022-10-24T21:31:18.083Z,13.16
2022-10-24T21:33:45.503Z,13.09
2022-10-24T21:36:15.049Z,12.58
2022-10-24T21:38:45.831Z,12.98
2022-10-24T21:41:12.608Z,12.62
2022-10-24T21:43:41.347Z,12.82
2022-10-24T21:46:16.029Z,12.74
2022-10-24T21:48:43.983Z,12.68
2022-10-24T21:51:22.394Z,12.93
2022-10-24T21:53:53.848Z,12.87
2022-10-24T21:56:23.201Z,12.61
2022-10-24T21:58:58.006Z,12.58
2022-10-24T22:01:27.063Z,12.62
2022-10-24T22:04:02.910Z,13.08
2022-10-24T22:06:33.584Z,13.08
2022-10-24T22:09:01.544Z,12.35
2022-10-24T22:11:30.554Z,12.72
2022-10-24T22:13:58.542Z,13.07
2022-10-24T22:16:27.685Z,12.44
2022-10-24T22:18:54.958Z,12.19
2022-10-24T22:21:35.379Z,13.06
2022-10-24T22:24:09.066Z,12.07
2022-10-24T22:26:37.103Z,12.02
2022-10-24T22:29:05.550Z,11.91
2022-10-24T22:31:32.868Z,12.71
2022-10-24T22:33:59.955Z,12.21
2022-10-24T22:36:33.051Z,12.84
2022-10-24T22:39:00.176Z,12.22
2022-10-24T22:41:28.357Z,12.00
2022-10-24T22:43:55.445Z,11.75
2022-10-24T22:46:25.195Z,12.73
2022-10-24T22:48:57.662Z,12.07
2022-10-24T22:51:24.867Z,12.15
2022-10-24T22:53:52.090Z,12.35
2022-10-24T22:59:04.152Z,12.23
2022-10-24T23:02:07.643Z,12.32
2022-10-24T23:04:43.296Z,12.67
2022-10-24T23:07:16.282Z,13.11
2022-10-24T23:09:43.045Z,12.70
2022-10-24T23:12:14.678Z,12.94
2022-10-24T23:14:42.515Z,12.54
2022-10-24T23:17:11.802Z,12.27
2022-10-24T23:19:43.546Z,11.82
2022-10-24T23:22:32.224Z,12.79
2022-10-24T23:25:01.117Z,12.89
2022-10-24T23:27:35.635Z,13.02
2022-10-24T23:30:05.480Z,12.42
2022-10-24T23:32:38.024Z,12.56
2022-10-24T23:35:05.465Z,12.52
2022-10-24T23:37:32.684Z,12.56
2022-10-24T23:40:01.451Z,12.42
2022-10-24T23:42:28.607Z,12.68
2022-10-24T23:44:55.856Z,12.48
2022-10-24T23:47:28.543Z,12.81
2022-10-24T23:50:03.016Z,12.55
2022-10-24T23:53:03.451Z,12.82
2022-10-24T23:55:30.680Z,12.53
2022-10-24T23:57:57.560Z,12.63
